Time;durP1;ratioP1;P1;durP2;ratioP2;P2;SDS_P1;SDS_P2;PMS_P1;PMS_P2;Temp;Humidity;BMP_temperature;BMP_pressure;BME280_temperature;BME280_humidity;BME280_pressure;Samples;Min_cycle;Max_cycle;Signal;HPM_P1;HPM_P2
2023/04/28 00:00:42;;;;;;;32.08;15.68;;;;;;;-144.73;100.00;54376.91;5053137;28;20021;-71
2023/04/28 00:03:08;;;;;;;29.65;15.70;;;;;;;-144.73;100.00;54395.38;5057059;28;20104;-69
2023/04/28 00:05:33;;;;;;;39.08;14.10;;;;;;;-144.73;100.00;54456.97;5028493;28;20036;-70
2023/04/28 00:07:58;;;;;;;25.70;13.95;;;;;;;-144.73;100.00;54415.91;5055109;28;20044;-69
2023/04/28 00:10:24;;;;;;;33.22;15.68;;;;;;;-144.73;100.00;54407.69;5024614;28;20037;-70
2023/04/28 00:12:49;;;;;;;25.52;13.43;;;;;;;-144.73;100.00;54407.69;5032750;28;20024;-69
2023/04/28 00:15:14;;;;;;;31.60;15.35;;;;;;;-144.73;100.00;54407.69;5049345;28;20399;-69
2023/04/28 00:17:40;;;;;;;30.27;13.98;;;;;;;-144.73;100.00;54378.97;5028728;28;20023;-70
2023/04/28 00:20:06;;;;;;;26.75;14.23;;;;;;;-144.73;100.00;54395.38;5049138;28;20041;-69
2023/04/28 00:22:31;;;;;;;24.77;14.93;;;;;;;-144.73;100.00;54424.13;5032031;28;20068;-69
2023/04/28 00:24:56;;;;;;;27.27;13.88;;;;;;;-144.73;100.00;54372.81;5031451;28;20041;-69
2023/04/28 00:27:22;;;;;;;31.95;14.75;;;;;;;-144.73;100.00;54407.69;5049031;28;20053;-70
2023/04/28 00:29:47;;;;;;;20.90;13.63;;;;;;;-144.73;100.00;54424.13;5031065;28;20430;-69
2023/04/28 00:32:13;;;;;;;28.38;14.02;;;;;;;-144.73;100.00;54436.44;5029363;28;20056;-71
2023/04/28 00:34:38;;;;;;;28.63;14.80;;;;;;;-144.73;100.00;54407.69;5027992;28;20025;-70
2023/04/28 00:37:03;;;;;;;26.83;15.23;;;;;;;-144.73;100.00;54424.13;5026975;28;20032;-70
2023/04/28 00:39:29;;;;;;;24.63;14.55;;;;;;;-144.73;100.00;54399.50;5048339;28;20025;-69
2023/04/28 00:41:54;;;;;;;23.85;14.30;;;;;;;-144.73;100.00;54434.38;5032011;28;20080;-70
2023/04/28 00:44:20;;;;;;;37.38;15.85;;;;;;;-144.73;100.00;54411.81;5048994;28;20041;-69
2023/04/28 00:46:46;;;;;;;33.85;14.68;;;;;;;-144.73;100.00;54407.69;5031320;28;20023;-70
2023/04/28 00:49:12;;;;;;;27.48;14.60;;;;;;;-144.73;100.00;54397.44;5048600;28;20413;-69
2023/04/28 00:51:37;;;;;;;27.98;14.55;;;;;;;-144.73;100.00;54411.81;5031750;28;20021;-70
2023/04/28 00:54:04;;;;;;;28.25;15.20;;;;;;;-144.73;100.00;54395.38;5030731;28;20029;-70
2023/04/28 00:56:30;;;;;;;31.90;13.90;;;;;;;-144.73;100.00;54407.69;5029747;28;20027;-70
2023/04/28 00:58:56;;;;;;;36.42;14.70;;;;;;;-144.73;100.00;54387.19;5031471;28;20025;-70
2023/04/28 01:01:21;;;;;;;30.08;14.90;;;;;;;-144.73;100.00;54350.22;5049088;28;20871;-70
2023/04/28 01:03:47;;;;;;;28.88;14.68;;;;;;;-144.73;100.00;54362.53;5047031;28;20115;-69
2023/04/28 01:06:13;;;;;;;26.45;14.55;;;;;;;-144.73;100.00;54448.75;5032025;28;20041;-69
2023/04/28 01:08:38;;;;;;;35.53;14.77;;;;;;;-144.73;100.00;54383.06;5030247;28;20443;-69
2023/04/28 01:11:05;;;;;;;27.48;14.13;;;;;;;-144.73;100.00;54436.44;5031126;28;20087;-69
2023/04/28 01:13:31;;;;;;;32.30;14.75;;;;;;;-144.73;100.00;54399.50;5047855;28;20099;-70
2023/04/28 01:15:56;;;;;;;26.67;13.32;;;;;;;-144.73;100.00;54391.28;5026609;28;20052;-70
2023/04/28 01:18:22;;;;;;;27.05;13.15;;;;;;;-144.73;100.00;54407.69;5048195;28;20036;-70
2023/04/28 01:20:48;;;;;;;25.17;13.02;;;;;;;-144.73;100.00;54407.69;5026283;28;20025;-70
2023/04/28 01:23:15;;;;;;;26.73;14.95;;;;;;;-144.73;100.00;54387.19;5030813;28;20044;-70
2023/04/28 01:25:41;;;;;;;27.35;14.77;;;;;;;-144.73;100.00;54440.53;5030986;28;20033;-70
2023/04/28 01:28:08;;;;;;;33.50;14.85;;;;;;;-144.73;100.00;54407.69;5044303;28;20029;-70
2023/04/28 01:30:34;;;;;;;22.50;13.95;;;;;;;-144.73;100.00;54450.81;5030084;28;20036;-70
2023/04/28 01:33:00;;;;;;;28.95;15.40;;;;;;;-144.73;100.00;54444.66;5036435;28;20086;-70
2023/04/28 01:35:26;;;;;;;35.55;15.32;;;;;;;-144.73;100.00;54407.69;5037574;28;20029;-71
2023/04/28 01:37:51;;;;;;;25.77;14.68;;;;;;;-144.73;100.00;54415.91;5027781;28;20083;-70
2023/04/28 01:40:16;;;;;;;25.52;13.02;;;;;;;-144.73;100.00;54432.31;5035877;28;20037;-70
2023/04/28 01:42:41;;;;;;;29.70;14.75;;;;;;;-144.73;100.00;54432.31;5049904;28;20483;-70
2023/04/28 01:45:08;;;;;;;27.52;13.55;;;;;;;-144.73;100.00;54383.06;5045071;28;20518;-69
2023/04/28 01:47:33;;;;;;;26.27;13.18;;;;;;;-144.73;100.00;54411.81;5055505;28;20534;-69
2023/04/28 01:49:58;;;;;;;23.75;13.30;;;;;;;-144.73;100.00;54378.97;5029676;28;20119;-70
2023/04/28 01:52:24;;;;;;;25.30;13.15;;;;;;;-144.73;100.00;54395.38;5030937;28;20029;-71
2023/04/28 01:54:49;;;;;;;27.27;13.73;;;;;;;-144.73;100.00;54411.81;5034380;28;20427;-68
2023/04/28 01:57:15;;;;;;;31.13;15.25;;;;;;;-144.73;100.00;54407.69;5035553;28;20112;-69
2023/04/28 01:59:41;;;;;;;22.17;12.98;;;;;;;-144.73;100.00;54436.44;5052037;28;20415;-69
2023/04/28 02:02:06;;;;;;;27.02;13.40;;;;;;;-144.73;100.00;54440.53;5035234;28;20025;-70
2023/04/28 02:04:32;;;;;;;33.13;14.52;;;;;;;-144.73;100.00;54413.84;5034202;28;20128;-69
2023/04/28 02:06:57;;;;;;;34.47;16.02;;;;;;;-144.73;100.00;54479.53;5052525;28;20108;-69
2023/04/28 02:09:23;;;;;;;30.67;14.77;;;;;;;-144.73;100.00;54436.44;5051296;28;20033;-69
2023/04/28 02:11:48;;;;;;;31.80;14.23;;;;;;;-144.73;100.00;54370.75;5035312;28;20062;-70
2023/04/28 02:14:14;;;;;;;27.92;14.75;;;;;;;-144.73;100.00;54407.69;5033973;28;20045;-69
2023/04/28 02:16:39;;;;;;;27.13;14.02;;;;;;;-144.73;100.00;54448.75;5053001;28;20032;-69
2023/04/28 02:19:04;;;;;;;27.85;14.52;;;;;;;-144.73;100.00;54395.38;5056277;28;20090;-69
2023/04/28 02:21:30;;;;;;;27.77;15.27;;;;;;;-144.73;100.00;54415.91;5036967;28;20033;-70
2023/04/28 02:23:56;;;;;;;27.92;15.38;;;;;;;-144.73;100.00;54378.97;5026541;28;20084;-69
2023/04/28 02:26:21;;;;;;;31.33;14.27;;;;;;;-144.73;100.00;54407.69;5051702;28;20037;-70
2023/04/28 02:28:48;;;;;;;25.27;14.65;;;;;;;-144.73;100.00;54378.97;5033363;28;20036;-70
2023/04/28 02:31:13;;;;;;;31.95;14.25;;;;;;;-144.73;100.00;54374.84;5047256;28;20033;-70
2023/04/28 02:33:41;;;;;;;31.25;14.80;;;;;;;-144.73;100.00;54420.00;5051096;28;20056;-70
2023/04/28 02:36:06;;;;;;;29.67;14.55;;;;;;;-144.73;100.00;54420.00;5033680;28;20103;-69
2023/04/28 02:38:32;;;;;;;34.15;14.93;;;;;;;-144.73;100.00;54411.81;5028924;28;20096;-70
2023/04/28 02:41:03;;;;;;;32.30;13.60;;;;;;;-144.73;100.00;54440.53;5051956;28;20109;-70
2023/04/28 02:43:30;;;;;;;23.67;13.73;;;;;;;-144.73;100.00;54399.50;5051217;28;20028;-70
2023/04/28 02:45:56;;;;;;;35.95;15.27;;;;;;;-144.73;100.00;54399.50;5033841;28;20075;-69
2023/04/28 02:48:21;;;;;;;26.83;14.23;;;;;;;-144.73;100.00;54395.38;5050934;28;20033;-70
2023/04/28 02:50:47;;;;;;;33.10;14.23;;;;;;;-144.73;100.00;54424.13;5032911;28;20056;-69
2023/04/28 02:53:12;;;;;;;29.65;15.02;;;;;;;-144.73;100.00;54391.28;5033388;28;20043;-69
2023/04/28 02:55:38;;;;;;;28.83;15.88;;;;;;;-144.73;100.00;54387.19;5051738;28;20112;-70
2023/04/28 02:58:03;;;;;;;36.05;15.90;;;;;;;-144.73;100.00;54399.50;5032973;28;20082;-69
2023/04/28 03:00:29;;;;;;;36.65;17.05;;;;;;;-144.73;100.00;54395.38;5044000;28;20024;-69
2023/04/28 03:02:54;;;;;;;28.58;15.82;;;;;;;-144.73;100.00;54411.81;5036118;28;20017;-70
2023/04/28 03:05:19;;;;;;;31.65;15.27;;;;;;;-144.73;100.00;54417.97;5037568;28;20064;-70
2023/04/28 03:07:45;;;;;;;32.88;16.02;;;;;;;-144.73;100.00;54448.75;5061900;28;20059;-69
2023/04/28 03:10:11;;;;;;;29.30;15.23;;;;;;;-144.73;100.00;54378.97;5032367;28;20040;-69
2023/04/28 03:12:36;;;;;;;24.02;13.90;;;;;;;-144.73;100.00;54420.00;5051594;28;21420;-69
2023/04/28 03:15:02;;;;;;;32.05;15.02;;;;;;;-144.73;100.00;54424.13;5031977;28;20632;-69
2023/04/28 03:17:27;;;;;;;31.48;14.43;;;;;;;-144.73;100.00;54383.06;5032911;28;20032;-69
2023/04/28 03:19:53;;;;;;;33.05;16.27;;;;;;;-144.73;100.00;54407.69;5032583;28;20043;-69
2023/04/28 03:22:18;;;;;;;23.40;15.07;;;;;;;-144.73;100.00;54428.22;5032714;28;20139;-69
2023/04/28 03:24:43;;;;;;;24.75;14.18;;;;;;;-144.73;100.00;54428.22;5031840;28;20073;-69
2023/04/28 03:27:09;;;;;;;22.63;14.05;;;;;;;-144.73;100.00;54407.69;5051406;28;20035;-69
2023/04/28 03:29:34;;;;;;;24.45;12.35;;;;;;;-144.73;100.00;54376.91;5032392;28;20522;-69
2023/04/28 03:32:00;;;;;;;21.48;12.63;;;;;;;-144.73;100.00;54407.69;5050765;28;20044;-70
2023/04/28 03:34:26;;;;;;;24.80;13.45;;;;;;;-144.73;100.00;54448.75;5032072;28;20044;-69
2023/04/28 03:36:51;;;;;;;30.17;13.27;;;;;;;-144.73;100.00;54444.66;5032203;28;20033;-69
2023/04/28 03:39:16;;;;;;;23.98;12.40;;;;;;;-144.73;100.00;54407.69;5036739;28;20063;-69
2023/04/28 03:41:42;;;;;;;22.70;12.13;;;;;;;-144.73;100.00;54413.84;5051093;28;20028;-69
2023/04/28 03:44:07;;;;;;;21.20;11.35;;;;;;;-144.73;100.00;54415.91;5033301;28;20059;-69
2023/04/28 03:46:33;;;;;;;21.02;11.88;;;;;;;-144.73;100.00;54321.50;5032734;28;20044;-69
2023/04/28 03:49:01;;;;;;;28.73;13.63;;;;;;;-144.73;100.00;54430.28;5050877;28;20484;-69
2023/04/28 03:51:27;;;;;;;22.38;11.07;;;;;;;-144.73;100.00;54407.69;5031316;28;20116;-69
2023/04/28 03:53:53;;;;;;;22.92;12.15;;;;;;;-144.73;100.00;54368.69;5037435;28;20060;-69
2023/04/28 03:56:18;;;;;;;23.23;12.35;;;;;;;-144.73;100.00;54391.28;5035914;28;20049;-69
2023/04/28 03:58:44;;;;;;;29.98;13.13;;;;;;;-144.73;100.00;54399.50;5049259;28;20554;-69
2023/04/28 04:01:09;;;;;;;28.05;11.77;;;;;;;-144.73;100.00;54411.81;5032668;28;20036;-69
2023/04/28 04:03:35;;;;;;;30.70;12.30;;;;;;;-144.73;100.00;54383.06;5031814;28;20075;-69
2023/04/28 04:06:00;;;;;;;20.75;11.07;;;;;;;-144.73;100.00;54411.81;5032304;28;20090;-69
2023/04/28 04:08:26;;;;;;;22.20;11.68;;;;;;;-144.73;100.00;54411.81;5049647;28;20035;-69
2023/04/28 04:10:53;;;;;;;25.65;12.43;;;;;;;-144.73;100.00;54461.06;5031792;28;20078;-70
2023/04/28 04:13:19;;;;;;;22.60;11.88;;;;;;;-144.73;100.00;54378.97;5031188;28;20045;-69
2023/04/28 04:15:44;;;;;;;21.42;12.90;;;;;;;-144.73;100.00;54415.91;5026713;28;20029;-69
2023/04/28 04:18:10;;;;;;;31.13;12.43;;;;;;;-144.73;100.00;54395.38;5049992;28;20048;-70
2023/04/28 04:20:35;;;;;;;23.52;11.32;;;;;;;-144.73;100.00;54342.03;5049319;28;20487;-69
2023/04/28 04:23:00;;;;;;;19.15;10.32;;;;;;;-144.73;100.00;54378.97;5049058;28;20061;-69
2023/04/28 04:25:26;;;;;;;19.50;11.85;;;;;;;-144.73;100.00;54395.38;5031333;28;20045;-70
2023/04/28 04:27:51;;;;;;;22.65;11.68;;;;;;;-144.73;100.00;54378.97;5031391;28;20036;-70
2023/04/28 04:30:17;;;;;;;31.65;12.82;;;;;;;-144.73;100.00;54411.81;5030030;28;20037;-69
2023/04/28 04:32:42;;;;;;;23.58;11.93;;;;;;;-144.73;100.00;54391.28;5031353;28;20039;-69
2023/04/28 04:35:08;;;;;;;28.23;12.85;;;;;;;-144.73;100.00;54395.38;5030977;28;20044;-70
2023/04/28 04:37:33;;;;;;;15.93;10.35;;;;;;;-144.73;100.00;54395.38;5030896;28;20459;-70
2023/04/28 04:39:59;;;;;;;26.27;11.85;;;;;;;-144.73;100.00;54440.53;5048475;28;20033;-70
2023/04/28 04:42:25;;;;;;;20.90;12.07;;;;;;;-144.73;100.00;54428.22;5049664;28;20025;-69
2023/04/28 04:44:50;;;;;;;20.50;11.73;;;;;;;-144.73;100.00;54407.69;5031092;28;20110;-70
2023/04/28 04:47:15;;;;;;;26.23;11.88;;;;;;;-144.73;100.00;54395.38;5031978;28;20028;-69
2023/04/28 04:49:40;;;;;;;22.52;10.88;;;;;;;-144.73;100.00;54424.13;5029436;28;20118;-70
2023/04/28 04:52:07;;;;;;;21.48;11.43;;;;;;;-144.73;100.00;54411.81;5031255;28;20033;-70
2023/04/28 04:54:32;;;;;;;21.00;10.23;;;;;;;-144.73;100.00;54391.28;5031102;28;20045;-70
2023/04/28 04:56:57;;;;;;;16.77;9.95;;;;;;;-144.73;100.00;54442.59;5031427;28;20059;-70
2023/04/28 04:59:23;;;;;;;25.02;9.85;;;;;;;-144.73;100.00;54428.22;5030717;28;20082;-70
2023/04/28 05:01:48;;;;;;;20.65;10.48;;;;;;;-144.73;100.00;54407.69;5031632;28;20033;-70
2023/04/28 05:04:13;;;;;;;23.30;10.02;;;;;;;-144.73;100.00;54407.69;5049048;28;20045;-70
2023/04/28 05:06:39;;;;;;;18.77;9.20;;;;;;;-144.73;100.00;54407.69;5031034;28;20041;-69
2023/04/28 05:09:04;;;;;;;16.25;9.65;;;;;;;-144.73;100.00;54411.81;5030808;28;20037;-69
2023/04/28 05:11:30;;;;;;;22.08;9.13;;;;;;;-144.73;100.00;54409.75;5037599;28;20055;-69
2023/04/28 05:13:55;;;;;;;21.25;9.30;;;;;;;-144.73;100.00;54452.84;5033562;28;20043;-69
2023/04/28 05:16:21;;;;;;;16.33;9.05;;;;;;;-144.73;100.00;54420.00;5050376;28;20119;-70
2023/04/28 05:18:47;;;;;;;15.55;8.52;;;;;;;-144.73;100.00;54387.19;5058987;28;20120;-69
2023/04/28 05:21:12;;;;;;;16.95;8.85;;;;;;;-144.73;100.00;54407.69;5033153;28;20021;-70
2023/04/28 05:23:37;;;;;;;22.42;8.93;;;;;;;-144.73;100.00;54473.38;5053426;28;20064;-69
2023/04/28 05:26:03;;;;;;;15.25;7.78;;;;;;;-144.73;100.00;54413.84;5034744;28;20036;-70
2023/04/28 05:28:29;;;;;;;15.02;8.07;;;;;;;-144.73;100.00;54407.69;5033049;28;20112;-69
2023/04/28 05:30:55;;;;;;;36.88;9.57;;;;;;;-144.73;100.00;54432.31;5030567;28;20051;-70
2023/04/28 05:33:22;;;;;;;13.60;7.63;;;;;;;-144.73;100.00;54407.69;5048475;28;20036;-70
2023/04/28 05:35:48;;;;;;;17.10;7.80;;;;;;;-144.73;100.00;54407.69;5033762;28;20186;-71
2023/04/28 05:38:14;;;;;;;21.77;8.18;;;;;;;-144.73;99.77;54420.00;5032044;28;20029;-70
2023/04/28 05:40:39;;;;;;;14.98;7.38;;;;;;;-144.73;99.38;54383.06;5031134;28;20064;-70
2023/04/28 05:43:04;;;;;;;18.10;7.40;;;;;;;-144.73;98.83;54452.84;5048081;28;20069;-69
2023/04/28 05:45:30;;;;;;;11.75;6.28;;;;;;;-144.73;98.54;54420.00;5048447;28;20096;-70
2023/04/28 05:47:55;;;;;;;14.73;6.97;;;;;;;-144.73;98.62;54378.97;5025419;28;20029;-70
2023/04/28 05:50:21;;;;;;;21.58;7.75;;;;;;;-144.73;97.59;54391.28;5047530;28;20095;-70
2023/04/28 05:52:46;;;;;;;17.55;7.45;;;;;;;-144.73;96.04;54424.13;5048696;28;20502;-70
2023/04/28 05:55:11;;;;;;;10.15;6.03;;;;;;;-144.73;95.55;54424.13;5030251;28;20037;-70
2023/04/28 05:57:37;;;;;;;23.00;7.22;;;;;;;-144.73;94.48;54411.81;5029431;28;20159;-69
2023/04/28 06:00:03;;;;;;;17.55;6.10;;;;;;;-144.73;93.54;54389.22;5018670;28;20099;-70
2023/04/28 06:02:28;;;;;;;14.38;6.70;;;;;;;-144.73;92.70;54395.38;5030691;28;20107;-70
2023/04/28 06:04:54;;;;;;;16.13;6.10;;;;;;;-144.73;91.54;54432.31;5023808;28;20049;-70
2023/04/28 06:07:20;;;;;;;14.68;5.18;;;;;;;-144.73;90.42;54424.13;5030181;28;20024;-69
2023/04/28 06:09:45;;;;;;;11.30;5.43;;;;;;;-144.73;89.02;54415.91;5050499;28;20040;-71
2023/04/28 06:12:11;;;;;;;17.48;6.30;;;;;;;-144.73;87.85;54417.97;5028780;28;20086;-72
2023/04/28 06:14:36;;;;;;;9.35;4.72;;;;;;;-144.73;85.43;54407.69;5046916;28;20037;-73
2023/04/28 06:17:02;;;;;;;19.33;4.65;;;;;;;-144.73;85.29;54432.31;5050009;28;20040;-72
2023/04/28 06:19:28;;;;;;;10.95;4.90;;;;;;;-144.73;84.41;54446.69;5027023;28;20052;-72
2023/04/28 06:21:53;;;;;;;14.48;4.95;;;;;;;-144.73;83.28;54399.50;5045371;28;20032;-72
2023/04/28 06:24:18;;;;;;;6.75;3.95;;;;;;;-144.73;82.54;54434.38;5046513;28;20044;-72
2023/04/28 06:26:44;;;;;;;9.38;4.10;;;;;;;-144.73;81.84;54432.31;5028817;28;20036;-72
2023/04/28 06:29:10;;;;;;;10.18;4.57;;;;;;;-144.73;79.63;54407.69;5046534;28;20044;-72
2023/04/28 06:31:35;;;;;;;8.02;3.72;;;;;;;-144.73;77.54;54424.13;5031726;28;20036;-72
2023/04/28 06:34:00;;;;;;;12.13;3.75;;;;;;;-144.73;75.83;54415.91;5043226;28;20030;-72
2023/04/28 06:36:27;;;;;;;9.95;3.70;;;;;;;-144.73;76.37;54424.13;5017720;28;20029;-72
2023/04/28 06:38:52;;;;;;;12.88;3.78;;;;;;;-144.73;75.65;54385.13;5041990;28;20500;-73
2023/04/28 06:41:18;;;;;;;7.47;3.78;;;;;;;-144.73;73.48;54407.69;5028677;28;20072;-71
2023/04/28 06:43:43;;;;;;;8.45;3.67;;;;;;;-144.73;73.04;54426.16;5044168;28;20172;-72
2023/04/28 06:46:10;;;;;;;10.40;3.55;;;;;;;-144.73;72.60;54383.06;5028563;28;20573;-72
2023/04/28 06:48:35;;;;;;;8.85;3.50;;;;;;;-144.73;70.83;54395.38;5038790;28;20030;-72
2023/04/28 06:51:00;;;;;;;10.05;3.50;;;;;;;-144.73;70.38;54399.50;5045117;28;20085;-73
2023/04/28 06:53:26;;;;;;;9.02;3.58;;;;;;;-144.73;68.69;54420.00;5021486;28;20106;-72
2023/04/28 06:55:52;;;;;;;10.57;3.22;;;;;;;-144.73;68.92;54391.28;5029198;28;20025;-71
2023/04/28 06:58:17;;;;;;;9.45;3.53;;;;;;;-144.73;67.74;54395.38;5027841;28;20076;-73
2023/04/28 07:00:42;;;;;;;9.77;4.03;;;;;;;-144.73;66.17;54397.44;5027872;28;20040;-71
2023/04/28 07:03:08;;;;;;;12.07;3.55;;;;;;;-144.73;67.04;54413.84;5029392;28;20020;-73
2023/04/28 07:05:34;;;;;;;11.57;3.90;;;;;;;-144.73;66.59;54424.13;5027667;28;20092;-73
2023/04/28 07:07:59;;;;;;;12.20;3.63;;;;;;;-144.73;66.81;54391.28;5028165;28;20022;-73
2023/04/28 07:10:25;;;;;;;9.55;3.15;;;;;;;-144.73;65.39;54407.69;5028352;28;20079;-73
2023/04/28 07:12:53;;;;;;;9.50;3.50;;;;;;;-144.73;64.17;54391.28;5028295;28;20031;-73
2023/04/28 07:15:18;;;;;;;8.32;3.38;;;;;;;-144.73;64.20;54395.38;5020217;28;20028;-73
2023/04/28 07:17:44;;;;;;;10.63;3.38;;;;;;;-144.73;62.61;54395.38;5025992;28;20372;-73
2023/04/28 07:20:10;;;;;;;10.45;3.65;;;;;;;-144.73;62.53;54387.19;5021052;28;20076;-73
2023/04/28 07:22:35;;;;;;;9.25;3.58;;;;;;;-144.73;62.51;54358.44;5025560;28;20070;-73
2023/04/28 07:25:00;;;;;;;10.90;4.05;;;;;;;-144.73;61.57;54385.13;5042988;28;20511;-73
2023/04/28 07:27:26;;;;;;;11.43;3.22;;;;;;;-144.73;60.59;54366.66;5044565;28;20031;-73
2023/04/28 07:29:51;;;;;;;9.07;2.95;;;;;;;-144.73;61.40;54374.84;5025572;28;20163;-71
2023/04/28 07:32:16;;;;;;;9.52;3.55;;;;;;;-144.73;59.67;54393.34;5025780;28;20032;-72
2023/04/28 07:34:42;;;;;;;6.88;2.97;;;;;;;-144.73;58.78;54407.69;5025821;28;20037;-71
2023/04/28 07:37:08;;;;;;;11.02;3.20;;;;;;;-144.73;59.60;54383.06;5045966;28;20024;-71
2023/04/28 07:39:34;;;;;;;9.20;3.33;;;;;;;-144.73;58.36;54362.53;5024555;28;20041;-72
2023/04/28 07:42:02;;;;;;;7.93;2.75;;;;;;;-144.73;57.46;54352.28;5045424;28;20514;-73
2023/04/28 07:44:29;;;;;;;9.48;3.70;;;;;;;-144.73;56.38;54342.03;5025680;28;20084;-73
2023/04/28 07:46:54;;;;;;;10.15;3.15;;;;;;;-144.73;55.05;54376.91;5022200;28;20021;-72
2023/04/28 07:49:19;;;;;;;7.82;2.95;;;;;;;-144.73;54.72;54342.03;5025809;28;20519;-73
2023/04/28 07:51:45;;;;;;;10.30;3.22;;;;;;;-144.73;54.45;54383.06;5040901;28;20032;-73
2023/04/28 07:54:10;;;;;;;12.35;3.10;;;;;;;-144.73;54.64;54374.84;5026619;28;20080;-73
2023/04/28 07:56:36;;;;;;;10.88;3.28;;;;;;;-144.73;53.82;54383.06;5040290;28;20030;-73
2023/04/28 07:59:01;;;;;;;15.05;2.67;;;;;;;-144.73;53.95;54350.22;5025354;28;20064;-72
2023/04/28 08:01:26;;;;;;;9.63;3.47;;;;;;;-144.73;53.26;54354.34;5025401;28;20048;-72
2023/04/28 08:03:52;;;;;;;13.05;3.55;;;;;;;-144.73;52.38;54346.13;5043319;28;20041;-72
2023/04/28 08:06:18;;;;;;;11.50;3.20;;;;;;;-144.73;53.70;54366.66;5026151;28;20053;-72
2023/04/28 08:08:44;;;;;;;7.75;3.03;;;;;;;-144.73;53.25;54342.03;5024405;28;20135;-72
2023/04/28 08:11:09;;;;;;;8.68;2.88;;;;;;;-144.73;52.35;54374.84;5038992;28;20043;-72
2023/04/28 08:13:35;;;;;;;9.45;3.33;;;;;;;-144.73;52.80;54387.19;5042450;28;20044;-73
2023/04/28 08:16:00;;;;;;;10.70;3.28;;;;;;;-144.73;52.28;54337.91;5039921;28;20063;-73
2023/04/28 08:18:26;;;;;;;10.63;3.28;;;;;;;-144.73;52.39;54342.03;5023709;28;20037;-72
2023/04/28 08:20:52;;;;;;;8.10;3.58;;;;;;;-144.73;51.78;54362.53;5045379;28;20029;-72
2023/04/28 08:23:18;;;;;;;8.27;3.30;;;;;;;-144.73;52.42;54362.53;5039589;28;21309;-73
2023/04/28 08:25:43;;;;;;;6.63;3.13;;;;;;;-144.73;53.04;54366.66;5036031;28;20021;-72
2023/04/28 08:28:09;;;;;;;7.25;3.30;;;;;;;-144.73;52.42;54372.81;5037930;28;20021;-73
2023/04/28 08:30:34;;;;;;;9.35;3.25;;;;;;;-144.73;51.11;54387.19;5024380;28;20494;-74
2023/04/28 08:33:00;;;;;;;9.13;3.03;;;;;;;-144.73;52.05;54350.22;5022336;28;20029;-71
2023/04/28 08:35:25;;;;;;;10.55;4.13;;;;;;;-144.73;51.21;54413.84;5025278;28;20017;-73
2023/04/28 08:37:54;;;;;;;11.52;3.83;;;;;;;-144.73;50.49;54350.22;5025502;28;20025;-73
2023/04/28 08:40:19;;;;;;;11.13;3.78;;;;;;;-144.73;50.84;54333.81;5038348;28;20055;-72
2023/04/28 08:42:46;;;;;;;15.80;4.20;;;;;;;-144.73;50.16;54362.53;5038154;28;20021;-72
2023/04/28 08:45:15;;;;;;;10.20;3.42;;;;;;;-144.73;50.11;54387.19;5024898;28;20037;-73
2023/04/28 08:47:44;;;;;;;12.75;3.20;;;;;;;-144.73;49.95;54358.44;5024240;28;20040;-72
2023/04/28 08:50:11;;;;;;;8.57;3.35;;;;;;;-144.73;49.92;54383.06;5026540;28;20036;-71
2023/04/28 08:52:38;;;;;;;9.38;4.93;;;;;;;-144.73;50.80;54327.66;5020072;28;20112;-72
2023/04/28 08:55:09;;;;;;;13.20;4.00;;;;;;;-144.73;49.74;54407.69;5036428;28;20076;-72
2023/04/28 08:57:38;;;;;;;19.63;3.90;;;;;;;-144.73;49.97;54333.81;5031925;28;20087;-73
2023/04/28 09:00:05;;;;;;;12.90;3.63;;;;;;;-144.73;50.21;54344.06;5022585;28;20037;-73
2023/04/28 09:02:31;;;;;;;10.32;4.28;;;;;;;-144.73;49.73;54358.44;5023651;28;20029;-73
2023/04/28 09:04:57;;;;;;;6.88;4.03;;;;;;;-144.73;49.81;54346.13;5018942;28;20036;-72
2023/04/28 09:07:22;;;;;;;9.25;4.40;;;;;;;-144.73;50.98;54372.81;5025985;28;20044;-73
2023/04/28 09:09:48;;;;;;;20.10;4.68;;;;;;;-144.73;50.86;54383.06;5026618;28;20045;-72
2023/04/28 09:12:13;;;;;;;16.83;4.28;;;;;;;-144.73;50.15;54360.50;5029650;28;20064;-72
2023/04/28 09:14:38;;;;;;;13.35;3.90;;;;;;;-144.73;50.50;54370.75;5037666;28;20506;-72
2023/04/28 09:17:11;;;;;;;6.88;3.47;;;;;;;-144.73;50.18;54346.13;5027521;28;20510;-72
2023/04/28 09:19:38;;;;;;;9.15;4.28;;;;;;;-144.73;49.96;54354.34;5027473;28;20040;-73
2023/04/28 09:22:04;;;;;;;10.38;4.40;;;;;;;-144.73;50.04;54407.69;5016117;28;20151;-73
2023/04/28 09:24:40;;;;;;;13.80;4.18;;;;;;;-144.73;50.74;54350.22;5016783;28;20029;-73
2023/04/28 09:27:09;;;;;;;17.83;4.60;;;;;;;-144.73;50.85;54383.06;5028319;28;20032;-73
2023/04/28 09:29:35;;;;;;;9.40;4.05;;;;;;;-144.73;50.81;54360.50;5020669;28;20034;-73
2023/04/28 09:32:18;;;;;;;13.10;5.25;;;;;;;-144.73;50.23;54372.81;5027981;28;20037;-72
2023/04/28 09:34:45;;;;;;;12.80;4.25;;;;;;;-144.73;50.44;54395.38;5037427;28;20028;-72
2023/04/28 09:37:15;;;;;;;15.35;4.57;;;;;;;-144.73;52.20;54350.22;5018419;28;20021;-72
2023/04/28 09:39:45;;;;;;;8.45;3.45;;;;;;;-144.73;51.31;54342.03;5016648;28;20033;-73
2023/04/28 09:42:31;;;;;;;13.73;4.32;;;;;;;-144.73;50.86;54393.34;5019273;28;20082;-72
2023/04/28 09:44:56;;;;;;;13.32;4.57;;;;;;;-144.73;50.43;54354.34;5022199;28;20056;-72
2023/04/28 09:47:22;;;;;;;19.02;4.70;;;;;;;-144.73;49.64;54350.22;5024419;28;20025;-72
2023/04/28 09:49:55;;;;;;;16.85;4.25;;;;;;;-144.73;50.55;54378.97;5021583;28;20029;-72
2023/04/28 09:52:22;;;;;;;9.68;4.50;;;;;;;-144.73;50.31;54368.69;5042139;28;20027;-72
2023/04/28 09:54:54;;;;;;;19.30;5.05;;;;;;;-144.73;50.44;54333.81;5024466;28;20069;-72
2023/04/28 09:57:21;;;;;;;16.25;4.90;;;;;;;-144.73;49.24;54374.84;5023855;28;20028;-71
2023/04/28 09:59:48;;;;;;;12.48;4.63;;;;;;;-144.73;48.82;54352.28;5024964;28;20043;-72
2023/04/28 10:02:18;;;;;;;16.00;4.72;;;;;;;-144.73;48.84;54362.53;5038038;28;20021;-71
2023/04/28 10:04:45;;;;;;;12.05;4.32;;;;;;;-144.73;49.85;54354.34;5030309;28;20036;-72
2023/04/28 10:07:13;;;;;;;16.70;4.57;;;;;;;-144.73;49.56;54366.66;5035309;28;20033;-72
2023/04/28 10:09:42;;;;;;;14.10;4.15;;;;;;;-144.73;48.63;54317.38;5018237;28;20033;-72
2023/04/28 10:12:09;;;;;;;14.07;4.90;;;;;;;-144.73;49.34;54366.66;5025593;28;20017;-72
2023/04/28 10:14:36;;;;;;;12.15;4.28;;;;;;;-144.73;49.18;54391.28;5024423;28;20037;-72
2023/04/28 10:17:03;;;;;;;13.52;4.68;;;;;;;-144.73;48.91;54366.66;5028587;28;20039;-71
2023/04/28 10:19:28;;;;;;;12.55;4.25;;;;;;;-144.73;48.94;54337.91;5021718;28;20033;-73
2023/04/28 10:22:07;;;;;;;13.65;4.40;;;;;;;-144.73;48.44;54358.44;5031122;28;20390;-71
2023/04/28 10:24:53;;;;;;;18.83;5.32;;;;;;;-144.73;49.61;54333.81;5047011;28;20083;-71
2023/04/28 10:27:18;;;;;;;13.68;4.57;;;;;;;-144.73;48.65;54339.97;5044960;28;20079;-72
2023/04/28 10:29:44;;;;;;;12.60;4.78;;;;;;;-144.73;49.29;54354.34;5026037;28;20029;-72
2023/04/28 10:32:16;;;;;;;14.63;5.20;;;;;;;-144.73;47.87;54342.03;5026843;28;20079;-72
2023/04/28 10:34:42;;;;;;;15.07;5.03;;;;;;;-144.73;48.55;54378.97;5043310;28;20049;-71
2023/04/28 10:37:07;;;;;;;12.57;4.47;;;;;;;-144.73;48.59;54362.53;5027278;28;20136;-72
2023/04/28 10:39:33;;;;;;;22.42;5.13;;;;;;;-144.73;47.94;54313.28;5026101;28;20124;-72
2023/04/28 10:41:58;;;;;;;10.90;4.85;;;;;;;-144.73;48.03;54370.75;5046701;28;20045;-72
2023/04/28 10:44:29;;;;;;;12.98;5.82;;;;;;;-144.73;48.22;54350.22;5028081;28;20040;-72
2023/04/28 10:47:03;;;;;;;8.50;4.13;;;;;;;-144.73;47.74;54348.19;5031573;28;20551;-72
2023/04/28 10:49:53;;;;;;;17.38;5.20;;;;;;;-144.73;47.40;54372.81;5027860;28;20028;-73
2023/04/28 10:52:37;;;;;;;20.25;5.30;;;;;;;-144.73;47.71;54317.38;5040180;28;20380;-73
2023/04/28 10:55:25;;;;;;;18.88;5.32;;;;;;;-144.73;46.97;54397.44;5025270;28;20559;-72
2023/04/28 10:58:19;;;;;;;10.05;4.90;;;;;;;-144.73;47.64;54350.22;5024315;28;20024;-71